sensor_id;sensor_type;location;lat;lon;timestamp;P1;durP1;ratioP1;P2;durP2;ratioP2
64293;SDS011;50636;45.596;5.258;2022-08-20T00:00:42;1163.22;;;899.10;;
64293;SDS011;50636;45.596;5.258;2022-08-20T00:03:15;508.63;;;458.40;;
64293;SDS011;50636;45.596;5.258;2022-08-20T00:05:49;72.38;;;65.05;;
64293;SDS011;50636;45.596;5.258;2022-08-20T00:08:20;507.77;;;453.50;;
64293;SDS011;50636;45.596;5.258;2022-08-20T00:10:47;1316.53;;;824.38;;
64293;SDS011;50636;45.596;5.258;2022-08-20T00:13:16;1228.53;;;845.35;;
64293;SDS011;50636;45.596;5.258;2022-08-20T00:15:46;1227.10;;;887.15;;
64293;SDS011;50636;45.596;5.258;2022-08-20T00:18:12;415.60;;;358.38;;
64293;SDS011;50636;45.596;5.258;2022-08-20T00:20:40;108.82;;;93.07;;
64293;SDS011;50636;45.596;5.258;2022-08-20T00:23:08;187.50;;;169.50;;
64293;SDS011;50636;45.596;5.258;2022-08-20T00:25:34;80.47;;;59.67;;
64293;SDS011;50636;45.596;5.258;2022-08-20T00:28:00;43.53;;;32.08;;
64293;SDS011;50636;45.596;5.258;2022-08-20T00:30:28;51.53;;;36.15;;
64293;SDS011;50636;45.596;5.258;2022-08-20T00:32:57;39.95;;;29.40;;
64293;SDS011;50636;45.596;5.258;2022-08-20T00:35:26;32.10;;;16.10;;
64293;SDS011;50636;45.596;5.258;2022-08-20T00:37:54;32.55;;;26.40;;
64293;SDS011;50636;45.596;5.258;2022-08-20T00:40:31;23.83;;;10.35;;
64293;SDS011;50636;45.596;5.258;2022-08-20T00:43:00;38.92;;;24.08;;
64293;SDS011;50636;45.596;5.258;2022-08-20T00:45:30;26.65;;;11.75;;
64293;SDS011;50636;45.596;5.258;2022-08-20T00:47:58;288.10;;;262.67;;
64293;SDS011;50636;45.596;5.258;2022-08-20T00:50:26;24.80;;;19.75;;
64293;SDS011;50636;45.596;5.258;2022-08-20T00:52:58;13.93;;;8.70;;
64293;SDS011;50636;45.596;5.258;2022-08-20T00:55:26;15.25;;;5.88;;
64293;SDS011;50636;45.596;5.258;2022-08-20T00:57:55;35.72;;;7.60;;
64293;SDS011;50636;45.596;5.258;2022-08-20T01:00:31;19.02;;;9.90;;
64293;SDS011;50636;45.596;5.258;2022-08-20T01:03:01;9.02;;;4.55;;
64293;SDS011;50636;45.596;5.258;2022-08-20T01:05:28;100.80;;;91.38;;
64293;SDS011;50636;45.596;5.258;2022-08-20T01:07:54;47.15;;;42.03;;
64293;SDS011;50636;45.596;5.258;2022-08-20T01:10:22;15.70;;;7.88;;
64293;SDS011;50636;45.596;5.258;2022-08-20T01:12:52;17.48;;;8.23;;
64293;SDS011;50636;45.596;5.258;2022-08-20T01:15:22;15.45;;;6.80;;
64293;SDS011;50636;45.596;5.258;2022-08-20T01:17:52;9.45;;;5.00;;
64293;SDS011;50636;45.596;5.258;2022-08-20T01:20:23;506.38;;;452.52;;
64293;SDS011;50636;45.596;5.258;2022-08-20T01:31:06;12.85;;;9.98;;
64293;SDS011;50636;45.596;5.258;2022-08-20T01:33:38;48.85;;;43.58;;
64293;SDS011;50636;45.596;5.258;2022-08-20T01:36:04;80.25;;;72.18;;
64293;SDS011;50636;45.596;5.258;2022-08-20T01:38:31;316.52;;;286.17;;
64293;SDS011;50636;45.596;5.258;2022-08-20T01:43:46;18.45;;;14.73;;
64293;SDS011;50636;45.596;5.258;2022-08-20T01:46:14;27.15;;;23.77;;
64293;SDS011;50636;45.596;5.258;2022-08-20T01:48:41;29.90;;;21.85;;
64293;SDS011;50636;45.596;5.258;2022-08-20T01:51:15;559.97;;;504.02;;
64293;SDS011;50636;45.596;5.258;2022-08-20T01:53:45;1999.90;;;999.90;;
64293;SDS011;50636;45.596;5.258;2022-08-20T01:56:15;1577.30;;;854.53;;
64293;SDS011;50636;45.596;5.258;2022-08-20T01:58:47;286.92;;;216.48;;
64293;SDS011;50636;45.596;5.258;2022-08-20T02:01:25;110.13;;;79.22;;
64293;SDS011;50636;45.596;5.258;2022-08-20T02:03:57;53.63;;;31.30;;
64293;SDS011;50636;45.596;5.258;2022-08-20T02:06:24;88.53;;;59.72;;
64293;SDS011;50636;45.596;5.258;2022-08-20T02:08:52;73.30;;;52.53;;
64293;SDS011;50636;45.596;5.258;2022-08-20T02:11:20;55.83;;;33.45;;
64293;SDS011;50636;45.596;5.258;2022-08-20T02:13:46;28.98;;;19.80;;
64293;SDS011;50636;45.596;5.258;2022-08-20T02:16:16;26.23;;;14.68;;
64293;SDS011;50636;45.596;5.258;2022-08-20T02:18:45;16.33;;;10.02;;
64293;SDS011;50636;45.596;5.258;2022-08-20T02:21:11;18.30;;;9.48;;
64293;SDS011;50636;45.596;5.258;2022-08-20T02:23:37;42.50;;;17.17;;
64293;SDS011;50636;45.596;5.258;2022-08-20T02:26:02;26.27;;;15.05;;
64293;SDS011;50636;45.596;5.258;2022-08-20T02:28:29;16.65;;;7.55;;
64293;SDS011;50636;45.596;5.258;2022-08-20T02:30:55;27.10;;;10.40;;
64293;SDS011;50636;45.596;5.258;2022-08-20T02:33:22;21.00;;;12.68;;
64293;SDS011;50636;45.596;5.258;2022-08-20T02:35:48;14.65;;;8.02;;
64293;SDS011;50636;45.596;5.258;2022-08-20T02:38:15;12.20;;;4.78;;
64293;SDS011;50636;45.596;5.258;2022-08-20T02:40:42;19.90;;;6.70;;
64293;SDS011;50636;45.596;5.258;2022-08-20T02:43:09;14.43;;;4.18;;
64293;SDS011;50636;45.596;5.258;2022-08-20T02:45:36;17.25;;;6.32;;
64293;SDS011;50636;45.596;5.258;2022-08-20T02:48:09;4.90;;;3.03;;
64293;SDS011;50636;45.596;5.258;2022-08-20T02:50:44;9.07;;;3.22;;
64293;SDS011;50636;45.596;5.258;2022-08-20T02:53:11;6.32;;;3.38;;
64293;SDS011;50636;45.596;5.258;2022-08-20T02:55:37;13.02;;;3.80;;
64293;SDS011;50636;45.596;5.258;2022-08-20T02:58:03;11.18;;;3.40;;
64293;SDS011;50636;45.596;5.258;2022-08-20T03:00:30;17.55;;;3.85;;
64293;SDS011;50636;45.596;5.258;2022-08-20T03:02:56;13.98;;;3.13;;
64293;SDS011;50636;45.596;5.258;2022-08-20T03:05:22;5.88;;;2.88;;
64293;SDS011;50636;45.596;5.258;2022-08-20T03:07:49;13.52;;;3.03;;
64293;SDS011;50636;45.596;5.258;2022-08-20T03:10:24;9.20;;;2.85;;
64293;SDS011;50636;45.596;5.258;2022-08-20T03:12:53;11.40;;;2.85;;
64293;SDS011;50636;45.596;5.258;2022-08-20T03:15:19;7.30;;;2.33;;
64293;SDS011;50636;45.596;5.258;2022-08-20T03:17:44;14.90;;;2.85;;
64293;SDS011;50636;45.596;5.258;2022-08-20T03:20:11;7.05;;;5.90;;
64293;SDS011;50636;45.596;5.258;2022-08-20T03:22:37;5.22;;;2.40;;
64293;SDS011;50636;45.596;5.258;2022-08-20T03:25:03;9.13;;;2.95;;
64293;SDS011;50636;45.596;5.258;2022-08-20T03:27:29;19.42;;;3.90;;
64293;SDS011;50636;45.596;5.258;2022-08-20T03:29:55;13.23;;;3.50;;
64293;SDS011;50636;45.596;5.258;2022-08-20T03:32:21;21.70;;;3.75;;
64293;SDS011;50636;45.596;5.258;2022-08-20T03:34:46;6.68;;;2.78;;
64293;SDS011;50636;45.596;5.258;2022-08-20T03:37:12;12.32;;;2.67;;
64293;SDS011;50636;45.596;5.258;2022-08-20T03:39:38;11.55;;;2.60;;
64293;SDS011;50636;45.596;5.258;2022-08-20T03:42:04;11.60;;;2.30;;
64293;SDS011;50636;45.596;5.258;2022-08-20T03:44:30;7.75;;;2.90;;
64293;SDS011;50636;45.596;5.258;2022-08-20T03:46:55;15.00;;;2.85;;
64293;SDS011;50636;45.596;5.258;2022-08-20T03:49:22;25.80;;;4.20;;
64293;SDS011;50636;45.596;5.258;2022-08-20T03:51:48;17.48;;;3.70;;
64293;SDS011;50636;45.596;5.258;2022-08-20T03:54:15;23.63;;;3.67;;
64293;SDS011;50636;45.596;5.258;2022-08-20T03:56:40;19.95;;;4.13;;
64293;SDS011;50636;45.596;5.258;2022-08-20T03:59:06;17.13;;;3.63;;
64293;SDS011;50636;45.596;5.258;2022-08-20T04:01:32;13.95;;;2.97;;
64293;SDS011;50636;45.596;5.258;2022-08-20T04:03:59;38.20;;;7.47;;
64293;SDS011;50636;45.596;5.258;2022-08-20T04:06:25;14.13;;;4.18;;
64293;SDS011;50636;45.596;5.258;2022-08-20T04:08:53;10.65;;;2.70;;
64293;SDS011;50636;45.596;5.258;2022-08-20T04:11:19;15.60;;;2.50;;
64293;SDS011;50636;45.596;5.258;2022-08-20T04:13:45;11.73;;;3.03;;
64293;SDS011;50636;45.596;5.258;2022-08-20T04:16:11;19.63;;;3.90;;
64293;SDS011;50636;45.596;5.258;2022-08-20T04:18:37;9.80;;;3.03;;
64293;SDS011;50636;45.596;5.258;2022-08-20T04:21:02;17.95;;;3.60;;
64293;SDS011;50636;45.596;5.258;2022-08-20T04:23:30;11.43;;;2.97;;
64293;SDS011;50636;45.596;5.258;2022-08-20T04:25:56;9.95;;;3.40;;
64293;SDS011;50636;45.596;5.258;2022-08-20T04:28:22;9.75;;;2.65;;
64293;SDS011;50636;45.596;5.258;2022-08-20T04:30:54;25.00;;;4.18;;
64293;SDS011;50636;45.596;5.258;2022-08-20T04:33:24;16.65;;;3.90;;
64293;SDS011;50636;45.596;5.258;2022-08-20T04:35:56;12.13;;;2.85;;
64293;SDS011;50636;45.596;5.258;2022-08-20T04:38:25;31.90;;;3.95;;
64293;SDS011;50636;45.596;5.258;2022-08-20T04:40:51;18.52;;;3.53;;
64293;SDS011;50636;45.596;5.258;2022-08-20T04:43:30;10.77;;;3.15;;
64293;SDS011;50636;45.596;5.258;2022-08-20T04:46:01;5.88;;;2.22;;
64293;SDS011;50636;45.596;5.258;2022-08-20T04:48:30;9.85;;;2.47;;
64293;SDS011;50636;45.596;5.258;2022-08-20T04:50:57;15.27;;;3.28;;
64293;SDS011;50636;45.596;5.258;2022-08-20T04:53:25;11.95;;;2.83;;
64293;SDS011;50636;45.596;5.258;2022-08-20T04:55:53;16.67;;;3.72;;
64293;SDS011;50636;45.596;5.258;2022-08-20T04:58:25;12.73;;;2.72;;
64293;SDS011;50636;45.596;5.258;2022-08-20T05:00:58;10.25;;;3.03;;
64293;SDS011;50636;45.596;5.258;2022-08-20T05:03:26;13.48;;;2.95;;
64293;SDS011;50636;45.596;5.258;2022-08-20T05:05:52;25.88;;;3.60;;
64293;SDS011;50636;45.596;5.258;2022-08-20T05:08:19;18.83;;;3.38;;
64293;SDS011;50636;45.596;5.258;2022-08-20T05:10:47;14.93;;;3.13;;
64293;SDS011;50636;45.596;5.258;2022-08-20T05:13:16;11.68;;;3.17;;
64293;SDS011;50636;45.596;5.258;2022-08-20T05:15:42;8.02;;;2.83;;
64293;SDS011;50636;45.596;5.258;2022-08-20T05:18:12;9.70;;;2.78;;
64293;SDS011;50636;45.596;5.258;2022-08-20T05:20:42;14.43;;;2.58;;
64293;SDS011;50636;45.596;5.258;2022-08-20T05:23:09;14.15;;;3.72;;
64293;SDS011;50636;45.596;5.258;2022-08-20T05:25:37;5.75;;;2.28;;
64293;SDS011;50636;45.596;5.258;2022-08-20T05:28:09;16.80;;;4.00;;
64293;SDS011;50636;45.596;5.258;2022-08-20T05:30:41;8.00;;;2.90;;
64293;SDS011;50636;45.596;5.258;2022-08-20T05:33:08;10.50;;;2.90;;
64293;SDS011;50636;45.596;5.258;2022-08-20T05:35:37;11.52;;;2.85;;
64293;SDS011;50636;45.596;5.258;2022-08-20T05:38:04;5.97;;;2.50;;
64293;SDS011;50636;45.596;5.258;2022-08-20T05:40:31;6.15;;;2.08;;
64293;SDS011;50636;45.596;5.258;2022-08-20T05:42:56;14.98;;;2.63;;
64293;SDS011;50636;45.596;5.258;2022-08-20T05:45:22;18.35;;;7.95;;
64293;SDS011;50636;45.596;5.258;2022-08-20T05:47:48;11.98;;;3.05;;
64293;SDS011;50636;45.596;5.258;2022-08-20T05:50:17;31.33;;;27.85;;
64293;SDS011;50636;45.596;5.258;2022-08-20T05:52:43;6.00;;;2.50;;
64293;SDS011;50636;45.596;5.258;2022-08-20T05:55:10;6.32;;;2.03;;
64293;SDS011;50636;45.596;5.258;2022-08-20T05:57:37;12.75;;;3.20;;
64293;SDS011;50636;45.596;5.258;2022-08-20T06:00:05;11.18;;;3.15;;
64293;SDS011;50636;45.596;5.258;2022-08-20T06:02:33;586.03;;;527.72;;
64293;SDS011;50636;45.596;5.258;2022-08-20T06:05:17;50.78;;;20.42;;
64293;SDS011;50636;45.596;5.258;2022-08-20T06:07:44;15.13;;;4.90;;
64293;SDS011;50636;45.596;5.258;2022-08-20T06:10:10;9.02;;;3.45;;
64293;SDS011;50636;45.596;5.258;2022-08-20T06:12:37;26.67;;;4.15;;
64293;SDS011;50636;45.596;5.258;2022-08-20T06:15:04;17.85;;;3.85;;
64293;SDS011;50636;45.596;5.258;2022-08-20T06:17:31;15.02;;;3.50;;
64293;SDS011;50636;45.596;5.258;2022-08-20T06:19:58;88.45;;;78.85;;
64293;SDS011;50636;45.596;5.258;2022-08-20T06:22:28;14.65;;;4.93;;
64293;SDS011;50636;45.596;5.258;2022-08-20T06:24:54;19.98;;;5.07;;
64293;SDS011;50636;45.596;5.258;2022-08-20T06:27:20;21.10;;;3.88;;
64293;SDS011;50636;45.596;5.258;2022-08-20T06:29:46;14.00;;;3.67;;
64293;SDS011;50636;45.596;5.258;2022-08-20T06:32:12;13.57;;;3.47;;
64293;SDS011;50636;45.596;5.258;2022-08-20T06:34:39;39.92;;;13.73;;
64293;SDS011;50636;45.596;5.258;2022-08-20T06:37:14;19.33;;;4.22;;
64293;SDS011;50636;45.596;5.258;2022-08-20T06:39:42;14.25;;;3.42;;
64293;SDS011;50636;45.596;5.258;2022-08-20T06:42:08;35.67;;;32.47;;
64293;SDS011;50636;45.596;5.258;2022-08-20T06:44:33;8.93;;;5.80;;
64293;SDS011;50636;45.596;5.258;2022-08-20T06:47:01;10.57;;;3.00;;
64293;SDS011;50636;45.596;5.258;2022-08-20T06:49:29;10.00;;;2.40;;
64293;SDS011;50636;45.596;5.258;2022-08-20T06:51:55;11.38;;;2.97;;
64293;SDS011;50636;45.596;5.258;2022-08-20T06:54:21;7.43;;;2.58;;
64293;SDS011;50636;45.596;5.258;2022-08-20T06:56:47;9.13;;;2.47;;
64293;SDS011;50636;45.596;5.258;2022-08-20T06:59:16;5.55;;;2.33;;
64293;SDS011;50636;45.596;5.258;2022-08-20T07:01:41;6.25;;;2.15;;
64293;SDS011;50636;45.596;5.258;2022-08-20T07:04:07;2.95;;;1.73;;
64293;SDS011;50636;45.596;5.258;2022-08-20T07:06:32;8.60;;;2.10;;
64293;SDS011;50636;45.596;5.258;2022-08-20T07:08:58;12.20;;;2.33;;
64293;SDS011;50636;45.596;5.258;2022-08-20T07:11:24;3.83;;;1.63;;
64293;SDS011;50636;45.596;5.258;2022-08-20T07:13:50;3.50;;;1.52;;
64293;SDS011;50636;45.596;5.258;2022-08-20T07:16:19;6.20;;;2.10;;
64293;SDS011;50636;45.596;5.258;2022-08-20T07:18:45;10.80;;;2.53;;
64293;SDS011;50636;45.596;5.258;2022-08-20T07:21:10;7.28;;;1.85;;
64293;SDS011;50636;45.596;5.258;2022-08-20T07:23:36;10.88;;;2.30;;
64293;SDS011;50636;45.596;5.258;2022-08-20T07:26:02;13.15;;;2.63;;
64293;SDS011;50636;45.596;5.258;2022-08-20T07:28:28;12.15;;;2.20;;
64293;SDS011;50636;45.596;5.258;2022-08-20T07:30:55;10.07;;;2.40;;
64293;SDS011;50636;45.596;5.258;2022-08-20T07:33:40;8.45;;;2.08;;
64293;SDS011;50636;45.596;5.258;2022-08-20T07:36:06;4.90;;;1.58;;
64293;SDS011;50636;45.596;5.258;2022-08-20T07:38:32;4.55;;;1.60;;
64293;SDS011;50636;45.596;5.258;2022-08-20T07:41:02;12.13;;;2.17;;
64293;SDS011;50636;45.596;5.258;2022-08-20T07:43:34;5.85;;;1.52;;
64293;SDS011;50636;45.596;5.258;2022-08-20T07:46:00;5.15;;;1.17;;
64293;SDS011;50636;45.596;5.258;2022-08-20T07:48:31;2.90;;;1.27;;
64293;SDS011;50636;45.596;5.258;2022-08-20T07:50:59;6.32;;;1.80;;
64293;SDS011;50636;45.596;5.258;2022-08-20T07:53:27;4.30;;;1.02;;
64293;SDS011;50636;45.596;5.258;2022-08-20T07:55:53;9.30;;;1.67;;
64293;SDS011;50636;45.596;5.258;2022-08-20T07:58:19;10.20;;;2.42;;
64293;SDS011;50636;45.596;5.258;2022-08-20T08:00:49;5.55;;;1.20;;
64293;SDS011;50636;45.596;5.258;2022-08-20T08:03:15;10.70;;;2.00;;
64293;SDS011;50636;45.596;5.258;2022-08-20T08:05:43;5.55;;;1.25;;
64293;SDS011;50636;45.596;5.258;2022-08-20T08:08:11;4.60;;;1.40;;
64293;SDS011;50636;45.596;5.258;2022-08-20T08:10:42;10.23;;;1.38;;
64293;SDS011;50636;45.596;5.258;2022-08-20T08:13:11;5.32;;;1.38;;
64293;SDS011;50636;45.596;5.258;2022-08-20T08:15:38;9.73;;;1.55;;
64293;SDS011;50636;45.596;5.258;2022-08-20T08:18:11;5.50;;;1.17;;
64293;SDS011;50636;45.596;5.258;2022-08-20T08:20:42;4.28;;;0.90;;
64293;SDS011;50636;45.596;5.258;2022-08-20T08:23:09;2.13;;;1.00;;
64293;SDS011;50636;45.596;5.258;2022-08-20T08:25:37;6.35;;;1.60;;
64293;SDS011;50636;45.596;5.258;2022-08-20T08:28:06;6.43;;;1.50;;
64293;SDS011;50636;45.596;5.258;2022-08-20T08:30:41;8.55;;;1.38;;
64293;SDS011;50636;45.596;5.258;2022-08-20T08:33:18;16.02;;;1.83;;
64293;SDS011;50636;45.596;5.258;2022-08-20T08:35:52;7.15;;;1.17;;
64293;SDS011;50636;45.596;5.258;2022-08-20T08:38:20;5.85;;;1.42;;
64293;SDS011;50636;45.596;5.258;2022-08-20T08:40:50;7.72;;;1.55;;
64293;SDS011;50636;45.596;5.258;2022-08-20T08:43:20;5.50;;;1.52;;
64293;SDS011;50636;45.596;5.258;2022-08-20T08:45:51;3.42;;;1.42;;
64293;SDS011;50636;45.596;5.258;2022-08-20T08:48:21;6.43;;;1.95;;
64293;SDS011;50636;45.596;5.258;2022-08-20T08:53:25;2.55;;;0.70;;
64293;SDS011;50636;45.596;5.258;2022-08-20T08:55:56;4.05;;;0.70;;
64293;SDS011;50636;45.596;5.258;2022-08-20T08:58:23;4.38;;;0.82;;
64293;SDS011;50636;45.596;5.258;2022-08-20T09:00:49;4.32;;;0.98;;
64293;SDS011;50636;45.596;5.258;2022-08-20T09:03:20;65.95;;;60.40;;
64293;SDS011;50636;45.596;5.258;2022-08-20T09:05:54;5.85;;;3.83;;
64293;SDS011;50636;45.596;5.258;2022-08-20T09:08:29;2.67;;;1.00;;
64293;SDS011;50636;45.596;5.258;2022-08-20T09:11:07;3.97;;;1.63;;
64293;SDS011;50636;45.596;5.258;2022-08-20T09:13:34;5.40;;;0.90;;
64293;SDS011;50636;45.596;5.258;2022-08-20T09:16:00;6.07;;;1.23;;
64293;SDS011;50636;45.596;5.258;2022-08-20T09:18:25;5.05;;;0.68;;
64293;SDS011;50636;45.596;5.258;2022-08-20T09:20:51;7.25;;;2.90;;
64293;SDS011;50636;45.596;5.258;2022-08-20T09:23:17;94.82;;;7.18;;
64293;SDS011;50636;45.596;5.258;2022-08-20T09:25:43;30.58;;;2.10;;
64293;SDS011;50636;45.596;5.258;2022-08-20T09:28:08;27.08;;;2.78;;
64293;SDS011;50636;45.596;5.258;2022-08-20T09:30:34;13.38;;;1.88;;
64293;SDS011;50636;45.596;5.258;2022-08-20T09:33:00;5.07;;;0.82;;
64293;SDS011;50636;45.596;5.258;2022-08-20T09:35:27;8.60;;;1.05;;
64293;SDS011;50636;45.596;5.258;2022-08-20T09:37:55;10.02;;;2.10;;
64293;SDS011;50636;45.596;5.258;2022-08-20T09:40:20;8.90;;;1.08;;
64293;SDS011;50636;45.596;5.258;2022-08-20T09:42:47;11.10;;;3.28;;
64293;SDS011;50636;45.596;5.258;2022-08-20T09:45:14;4.30;;;0.60;;
64293;SDS011;50636;45.596;5.258;2022-08-20T09:47:40;5.47;;;0.93;;
64293;SDS011;50636;45.596;5.258;2022-08-20T09:50:06;5.00;;;4.55;;
64293;SDS011;50636;45.596;5.258;2022-08-20T09:52:34;4.65;;;1.38;;
64293;SDS011;50636;45.596;5.258;2022-08-20T09:55:06;6.03;;;2.13;;
64293;SDS011;50636;45.596;5.258;2022-08-20T09:57:46;5.97;;;1.40;;
64293;SDS011;50636;45.596;5.258;2022-08-20T10:00:13;4.25;;;0.70;;
64293;SDS011;50636;45.596;5.258;2022-08-20T10:02:40;6.05;;;0.63;;
64293;SDS011;50636;45.596;5.258;2022-08-20T10:05:06;4.38;;;0.75;;
64293;SDS011;50636;45.596;5.258;2022-08-20T10:07:33;1.52;;;0.70;;
64293;SDS011;50636;45.596;5.258;2022-08-20T10:10:01;5.78;;;0.95;;
64293;SDS011;50636;45.596;5.258;2022-08-20T10:12:26;1.95;;;0.70;;
64293;SDS011;50636;45.596;5.258;2022-08-20T10:14:52;6.28;;;0.93;;
64293;SDS011;50636;45.596;5.258;2022-08-20T10:17:19;5.25;;;0.77;;
64293;SDS011;50636;45.596;5.258;2022-08-20T10:19:45;1.45;;;0.68;;
64293;SDS011;50636;45.596;5.258;2022-08-20T10:22:11;5.38;;;1.10;;
64293;SDS011;50636;45.596;5.258;2022-08-20T10:24:37;32.08;;;9.82;;
64293;SDS011;50636;45.596;5.258;2022-08-20T10:27:03;247.45;;;149.63;;
64293;SDS011;50636;45.596;5.258;2022-08-20T10:29:29;744.55;;;542.53;;
64293;SDS011;50636;45.596;5.258;2022-08-20T10:31:56;153.98;;;90.68;;
64293;SDS011;50636;45.596;5.258;2022-08-20T10:34:31;41.00;;;20.98;;
64293;SDS011;50636;45.596;5.258;2022-08-20T10:36:57;27.52;;;15.02;;
64293;SDS011;50636;45.596;5.258;2022-08-20T10:39:23;27.08;;;15.13;;
64293;SDS011;50636;45.596;5.258;2022-08-20T10:41:48;9.48;;;4.78;;
64293;SDS011;50636;45.596;5.258;2022-08-20T10:44:14;9.00;;;4.03;;
64293;SDS011;50636;45.596;5.258;2022-08-20T10:46:41;6.28;;;3.30;;
64293;SDS011;50636;45.596;5.258;2022-08-20T10:49:09;8.05;;;2.63;;
64293;SDS011;50636;45.596;5.258;2022-08-20T10:51:35;730.28;;;562.25;;
64293;SDS011;50636;45.596;5.258;2022-08-20T10:54:02;746.25;;;523.63;;
64293;SDS011;50636;45.596;5.258;2022-08-20T10:56:28;214.43;;;130.68;;
64293;SDS011;50636;45.596;5.258;2022-08-20T10:58:53;124.28;;;80.57;;
64293;SDS011;50636;45.596;5.258;2022-08-20T11:01:19;99.63;;;64.22;;
64293;SDS011;50636;45.596;5.258;2022-08-20T11:03:45;36.47;;;22.38;;
64293;SDS011;50636;45.596;5.258;2022-08-20T11:06:10;128.15;;;85.97;;
64293;SDS011;50636;45.596;5.258;2022-08-20T11:08:36;177.98;;;113.57;;
64293;SDS011;50636;45.596;5.258;2022-08-20T11:11:03;27.35;;;15.35;;
64293;SDS011;50636;45.596;5.258;2022-08-20T11:13:29;22.45;;;13.38;;
64293;SDS011;50636;45.596;5.258;2022-08-20T11:15:56;23.33;;;14.80;;
64293;SDS011;50636;45.596;5.258;2022-08-20T11:18:21;17.38;;;13.48;;
64293;SDS011;50636;45.596;5.258;2022-08-20T11:20:47;15.52;;;6.90;;
64293;SDS011;50636;45.596;5.258;2022-08-20T11:23:13;11.75;;;6.43;;
64293;SDS011;50636;45.596;5.258;2022-08-20T11:25:38;11.45;;;5.75;;
64293;SDS011;50636;45.596;5.258;2022-08-20T11:28:04;9.77;;;6.18;;
64293;SDS011;50636;45.596;5.258;2022-08-20T11:30:32;8.45;;;3.45;;
64293;SDS011;50636;45.596;5.258;2022-08-20T11:33:00;8.63;;;2.25;;
64293;SDS011;50636;45.596;5.258;2022-08-20T11:35:27;4.30;;;1.90;;
64293;SDS011;50636;45.596;5.258;2022-08-20T11:37:54;8.13;;;1.63;;
64293;SDS011;50636;45.596;5.258;2022-08-20T11:40:21;6.72;;;4.60;;
64293;SDS011;50636;45.596;5.258;2022-08-20T11:42:50;3.95;;;1.13;;
64293;SDS011;50636;45.596;5.258;2022-08-20T11:45:16;8.40;;;2.28;;
64293;SDS011;50636;45.596;5.258;2022-08-20T11:47:42;12.50;;;7.68;;
64293;SDS011;50636;45.596;5.258;2022-08-20T11:50:09;172.57;;;159.60;;
64293;SDS011;50636;45.596;5.258;2022-08-20T11:52:42;22.23;;;19.85;;
64293;SDS011;50636;45.596;5.258;2022-08-20T11:55:09;9.13;;;6.60;;
64293;SDS011;50636;45.596;5.258;2022-08-20T11:57:39;11.35;;;6.60;;
64293;SDS011;50636;45.596;5.258;2022-08-20T12:00:08;5.97;;;3.17;;
64293;SDS011;50636;45.596;5.258;2022-08-20T12:02:37;5.55;;;3.05;;
64293;SDS011;50636;45.596;5.258;2022-08-20T12:05:03;19.40;;;10.07;;
64293;SDS011;50636;45.596;5.258;2022-08-20T12:07:29;6.25;;;1.83;;
64293;SDS011;50636;45.596;5.258;2022-08-20T12:09:55;5.50;;;1.25;;
64293;SDS011;50636;45.596;5.258;2022-08-20T12:12:21;4.47;;;1.00;;
64293;SDS011;50636;45.596;5.258;2022-08-20T12:14:49;2.67;;;0.93;;
64293;SDS011;50636;45.596;5.258;2022-08-20T12:17:19;3.20;;;0.80;;
64293;SDS011;50636;45.596;5.258;2022-08-20T12:19:48;1.50;;;0.70;;
64293;SDS011;50636;45.596;5.258;2022-08-20T12:22:16;4.82;;;0.93;;
64293;SDS011;50636;45.596;5.258;2022-08-20T12:24:42;3.33;;;0.55;;
64293;SDS011;50636;45.596;5.258;2022-08-20T12:29:40;3.50;;;0.73;;
64293;SDS011;50636;45.596;5.258;2022-08-20T12:32:07;1.65;;;0.52;;
64293;SDS011;50636;45.596;5.258;2022-08-20T12:34:34;2.10;;;0.88;;
64293;SDS011;50636;45.596;5.258;2022-08-20T12:37:02;4.57;;;0.77;;
64293;SDS011;50636;45.596;5.258;2022-08-20T12:39:33;4.07;;;1.13;;
64293;SDS011;50636;45.596;5.258;2022-08-20T12:42:00;2.25;;;0.60;;
64293;SDS011;50636;45.596;5.258;2022-08-20T12:44:28;4.95;;;0.52;;
64293;SDS011;50636;45.596;5.258;2022-08-20T12:49:48;3.45;;;0.70;;
64293;SDS011;50636;45.596;5.258;2022-08-20T12:52:17;4.18;;;0.80;;
64293;SDS011;50636;45.596;5.258;2022-08-20T12:54:45;7.15;;;1.08;;
64293;SDS011;50636;45.596;5.258;2022-08-20T12:57:12;3.05;;;0.77;;
64293;SDS011;50636;45.596;5.258;2022-08-20T12:59:40;6.80;;;2.92;;
64293;SDS011;50636;45.596;5.258;2022-08-20T13:02:05;13.63;;;7.68;;
64293;SDS011;50636;45.596;5.258;2022-08-20T13:04:32;10.13;;;1.65;;
64293;SDS011;50636;45.596;5.258;2022-08-20T13:07:01;2.17;;;0.60;;
64293;SDS011;50636;45.596;5.258;2022-08-20T13:09:28;4.50;;;1.20;;
64293;SDS011;50636;45.596;5.258;2022-08-20T13:11:54;6.35;;;1.40;;
64293;SDS011;50636;45.596;5.258;2022-08-20T13:14:20;4.68;;;1.38;;
64293;SDS011;50636;45.596;5.258;2022-08-20T13:16:45;296.17;;;266.05;;
64293;SDS011;50636;45.596;5.258;2022-08-20T13:19:11;528.67;;;319.60;;
64293;SDS011;50636;45.596;5.258;2022-08-20T13:21:36;145.73;;;70.88;;
64293;SDS011;50636;45.596;5.258;2022-08-20T13:24:02;35.63;;;16.88;;
64293;SDS011;50636;45.596;5.258;2022-08-20T13:26:28;7.47;;;4.22;;
64293;SDS011;50636;45.596;5.258;2022-08-20T13:28:55;17.55;;;7.07;;
64293;SDS011;50636;45.596;5.258;2022-08-20T13:31:20;14.52;;;4.75;;
64293;SDS011;50636;45.596;5.258;2022-08-20T13:33:46;6.13;;;2.08;;
64293;SDS011;50636;45.596;5.258;2022-08-20T13:36:12;13.02;;;3.65;;
64293;SDS011;50636;45.596;5.258;2022-08-20T13:38:38;5.80;;;1.45;;
64293;SDS011;50636;45.596;5.258;2022-08-20T13:41:03;3.08;;;1.35;;
64293;SDS011;50636;45.596;5.258;2022-08-20T13:43:29;2.63;;;0.80;;
64293;SDS011;50636;45.596;5.258;2022-08-20T13:45:55;5.47;;;1.05;;
64293;SDS011;50636;45.596;5.258;2022-08-20T13:48:20;2.90;;;0.90;;
64293;SDS011;50636;45.596;5.258;2022-08-20T13:50:49;3.85;;;1.25;;
64293;SDS011;50636;45.596;5.258;2022-08-20T13:53:14;8.55;;;1.00;;
64293;SDS011;50636;45.596;5.258;2022-08-20T13:55:41;6.50;;;1.00;;
64293;SDS011;50636;45.596;5.258;2022-08-20T13:58:06;1.90;;;0.52;;
64293;SDS011;50636;45.596;5.258;2022-08-20T14:00:33;3.15;;;0.68;;
64293;SDS011;50636;45.596;5.258;2022-08-20T14:03:00;6.75;;;1.23;;
64293;SDS011;50636;45.596;5.258;2022-08-20T14:05:29;5.60;;;0.90;;
64293;SDS011;50636;45.596;5.258;2022-08-20T14:08:02;8.40;;;0.98;;
64293;SDS011;50636;45.596;5.258;2022-08-20T14:10:30;6.78;;;1.00;;
64293;SDS011;50636;45.596;5.258;2022-08-20T14:12:57;2.97;;;1.10;;
64293;SDS011;50636;45.596;5.258;2022-08-20T14:15:23;2.15;;;0.45;;
64293;SDS011;50636;45.596;5.258;2022-08-20T14:17:51;7.82;;;2.03;;
64293;SDS011;50636;45.596;5.258;2022-08-20T14:20:19;7.70;;;0.70;;
64293;SDS011;50636;45.596;5.258;2022-08-20T14:22:47;5.35;;;0.80;;
64293;SDS011;50636;45.596;5.258;2022-08-20T14:25:14;11.38;;;1.50;;
64293;SDS011;50636;45.596;5.258;2022-08-20T14:27:42;4.07;;;0.75;;
64293;SDS011;50636;45.596;5.258;2022-08-20T14:30:12;5.70;;;0.75;;
64293;SDS011;50636;45.596;5.258;2022-08-20T14:32:41;8.85;;;0.98;;
64293;SDS011;50636;45.596;5.258;2022-08-20T14:35:07;3.95;;;1.08;;
64293;SDS011;50636;45.596;5.258;2022-08-20T14:37:35;4.85;;;0.70;;
64293;SDS011;50636;45.596;5.258;2022-08-20T14:40:03;11.63;;;1.40;;
64293;SDS011;50636;45.596;5.258;2022-08-20T14:42:32;4.78;;;0.85;;
64293;SDS011;50636;45.596;5.258;2022-08-20T14:44:58;1.52;;;0.68;;
64293;SDS011;50636;45.596;5.258;2022-08-20T14:47:31;4.43;;;0.95;;
64293;SDS011;50636;45.596;5.258;2022-08-20T14:50:06;2.42;;;0.70;;
64293;SDS011;50636;45.596;5.258;2022-08-20T14:52:34;0.98;;;0.60;;
64293;SDS011;50636;45.596;5.258;2022-08-20T14:55:04;3.03;;;1.05;;
64293;SDS011;50636;45.596;5.258;2022-08-20T14:57:34;1.92;;;0.38;;